sensor_id;sensor_type;location;lat;lon;timestamp;pressure;altitude;pressure_sealevel;temperature;humidity
65758;BME280;52495;52.208;5.158;2023-03-19T00:01:34;100951.44;;;12.33;88.62
65758;BME280;52495;52.208;5.158;2023-03-19T00:04:00;100949.72;;;12.32;88.96
65758;BME280;52495;52.208;5.158;2023-03-19T00:06:27;100948.03;;;12.30;88.90
65758;BME280;52495;52.208;5.158;2023-03-19T00:08:54;100941.16;;;12.29;89.05
65758;BME280;52495;52.208;5.158;2023-03-19T00:11:21;100947.13;;;12.32;89.25
65758;BME280;52495;52.208;5.158;2023-03-19T00:13:49;100948.84;;;12.33;89.25
65758;BME280;52495;52.208;5.158;2023-03-19T00:16:16;100943.66;;;12.33;89.06
65758;BME280;52495;52.208;5.158;2023-03-19T00:18:43;100953.19;;;12.32;89.37
65758;BME280;52495;52.208;5.158;2023-03-19T00:21:09;100954.91;;;12.32;89.26
65758;BME280;52495;52.208;5.158;2023-03-19T00:23:36;100955.78;;;12.30;89.16
65758;BME280;52495;52.208;5.158;2023-03-19T00:26:03;100963.59;;;12.29;89.02
65758;BME280;52495;52.208;5.158;2023-03-19T00:28:31;100961.88;;;12.29;89.27
65758;BME280;52495;52.208;5.158;2023-03-19T00:31:07;100961.88;;;12.29;89.55
65758;BME280;52495;52.208;5.158;2023-03-19T00:33:36;100968.81;;;12.27;89.57
65758;BME280;52495;52.208;5.158;2023-03-19T00:36:04;100961.97;;;12.25;89.58
65758;BME280;52495;52.208;5.158;2023-03-19T00:38:31;100959.53;;;12.19;89.82
65758;BME280;52495;52.208;5.158;2023-03-19T00:40:58;100964.72;;;12.17;89.99
65758;BME280;52495;52.208;5.158;2023-03-19T00:43:25;100964.75;;;12.16;90.24
65758;BME280;52495;52.208;5.158;2023-03-19T00:45:52;100961.34;;;12.13;90.88
65758;BME280;52495;52.208;5.158;2023-03-19T00:48:21;100964.78;;;12.14;90.29
65758;BME280;52495;52.208;5.158;2023-03-19T00:50:48;100959.66;;;12.12;90.70
65758;BME280;52495;52.208;5.158;2023-03-19T00:53:15;100964.06;;;12.09;91.12
65758;BME280;52495;52.208;5.158;2023-03-19T00:55:42;100969.16;;;12.12;91.11
65758;BME280;52495;52.208;5.158;2023-03-19T00:58:09;100971.72;;;12.13;90.83
65758;BME280;52495;52.208;5.158;2023-03-19T01:00:36;100971.78;;;12.10;91.13
65758;BME280;52495;52.208;5.158;2023-03-19T01:03:04;100973.53;;;12.10;91.40
65758;BME280;52495;52.208;5.158;2023-03-19T01:05:33;100974.47;;;12.06;91.44
65758;BME280;52495;52.208;5.158;2023-03-19T01:08:00;100972.75;;;12.05;91.92
65758;BME280;52495;52.208;5.158;2023-03-19T01:10:29;100972.81;;;12.03;91.66
65758;BME280;52495;52.208;5.158;2023-03-19T01:12:58;100981.47;;;12.01;92.17
65758;BME280;52495;52.208;5.158;2023-03-19T01:15:25;100978.84;;;12.02;91.80
65758;BME280;52495;52.208;5.158;2023-03-19T01:17:52;100977.00;;;12.07;91.59
65758;BME280;52495;52.208;5.158;2023-03-19T01:20:19;100984.91;;;12.01;91.81
65758;BME280;52495;52.208;5.158;2023-03-19T01:22:49;100978.03;;;12.00;91.93
65758;BME280;52495;52.208;5.158;2023-03-19T01:25:16;100986.72;;;11.96;92.23
65758;BME280;52495;52.208;5.158;2023-03-19T01:27:53;100977.28;;;11.93;92.33
65758;BME280;52495;52.208;5.158;2023-03-19T01:30:20;100971.25;;;11.93;92.33
65758;BME280;52495;52.208;5.158;2023-03-19T01:33:05;100979.16;;;11.87;92.41
65758;BME280;52495;52.208;5.158;2023-03-19T01:35:52;100980.09;;;11.81;92.62
65758;BME280;52495;52.208;5.158;2023-03-19T01:38:23;100973.22;;;11.80;92.75
65758;BME280;52495;52.208;5.158;2023-03-19T01:40:51;100979.38;;;11.74;93.07
65758;BME280;52495;52.208;5.158;2023-03-19T01:43:19;100972.50;;;11.73;93.34
65758;BME280;52495;52.208;5.158;2023-03-19T01:46:05;100974.28;;;11.69;92.97
65758;BME280;52495;52.208;5.158;2023-03-19T01:48:50;100981.22;;;11.67;93.16
65758;BME280;52495;52.208;5.158;2023-03-19T01:51:22;100983.81;;;11.67;93.12
65758;BME280;52495;52.208;5.158;2023-03-19T01:54:00;100977.00;;;11.63;93.47
65758;BME280;52495;52.208;5.158;2023-03-19T01:56:37;100977.03;;;11.62;93.82
65758;BME280;52495;52.208;5.158;2023-03-19T01:59:12;100984.00;;;11.58;93.56
65758;BME280;52495;52.208;5.158;2023-03-19T02:01:56;100984.03;;;11.57;93.69
65758;BME280;52495;52.208;5.158;2023-03-19T02:04:24;100983.28;;;11.51;93.80
65758;BME280;52495;52.208;5.158;2023-03-19T02:06:53;100984.22;;;11.47;94.00
65758;BME280;52495;52.208;5.158;2023-03-19T02:09:23;100984.31;;;11.43;94.76
65758;BME280;52495;52.208;5.158;2023-03-19T02:11:51;100993.00;;;11.38;94.70
65758;BME280;52495;52.208;5.158;2023-03-19T02:14:19;100992.19;;;11.35;94.86
65758;BME280;52495;52.208;5.158;2023-03-19T02:16:46;100996.53;;;11.33;95.24
65758;BME280;52495;52.208;5.158;2023-03-19T02:19:16;100999.16;;;11.30;95.22
65758;BME280;52495;52.208;5.158;2023-03-19T02:21:45;100995.72;;;11.29;95.16
65758;BME280;52495;52.208;5.158;2023-03-19T02:24:16;100998.34;;;11.28;95.33
65758;BME280;52495;52.208;5.158;2023-03-19T02:26:55;100993.31;;;11.20;95.18
65758;BME280;52495;52.208;5.158;2023-03-19T02:29:23;100997.69;;;11.16;95.36
65758;BME280;52495;52.208;5.158;2023-03-19T02:31:50;100991.78;;;11.10;96.08
65758;BME280;52495;52.208;5.158;2023-03-19T02:34:35;101001.31;;;11.04;96.48
65758;BME280;52495;52.208;5.158;2023-03-19T02:37:05;101001.31;;;11.04;96.38
65758;BME280;52495;52.208;5.158;2023-03-19T02:39:38;100996.25;;;11.00;96.92
65758;BME280;52495;52.208;5.158;2023-03-19T02:42:11;101004.00;;;10.98;96.86
65758;BME280;52495;52.208;5.158;2023-03-19T02:44:39;101003.19;;;10.95;97.11
65758;BME280;52495;52.208;5.158;2023-03-19T02:47:06;100999.75;;;10.96;97.39
65758;BME280;52495;52.208;5.158;2023-03-19T02:49:33;101005.81;;;10.93;97.30
65758;BME280;52495;52.208;5.158;2023-03-19T02:52:00;101007.53;;;10.92;97.47
65758;BME280;52495;52.208;5.158;2023-03-19T02:54:27;101013.63;;;10.90;97.29
65758;BME280;52495;52.208;5.158;2023-03-19T02:56:54;101011.91;;;10.87;97.91
65758;BME280;52495;52.208;5.158;2023-03-19T02:59:22;101014.50;;;10.87;97.81
65758;BME280;52495;52.208;5.158;2023-03-19T03:01:49;101012.75;;;10.91;97.29
65758;BME280;52495;52.208;5.158;2023-03-19T03:04:16;101017.91;;;10.91;97.28
65758;BME280;52495;52.208;5.158;2023-03-19T03:06:44;101022.25;;;10.89;97.71
65758;BME280;52495;52.208;5.158;2023-03-19T03:09:11;101017.06;;;10.89;97.16
65758;BME280;52495;52.208;5.158;2023-03-19T03:11:39;101019.66;;;10.87;97.45
65758;BME280;52495;52.208;5.158;2023-03-19T03:14:07;101020.53;;;10.86;97.64
65758;BME280;52495;52.208;5.158;2023-03-19T03:16:36;101020.56;;;10.85;97.05
65758;BME280;52495;52.208;5.158;2023-03-19T03:19:03;101016.28;;;10.84;96.91
65758;BME280;52495;52.208;5.158;2023-03-19T03:21:30;101024.06;;;10.81;97.58
65758;BME280;52495;52.208;5.158;2023-03-19T03:23:58;101024.09;;;10.79;97.59
65758;BME280;52495;52.208;5.158;2023-03-19T03:26:25;101021.53;;;10.77;97.48
65758;BME280;52495;52.208;5.158;2023-03-19T03:28:52;101019.88;;;10.75;97.35
65758;BME280;52495;52.208;5.158;2023-03-19T03:31:19;101014.78;;;10.69;96.52
65758;BME280;52495;52.208;5.158;2023-03-19T03:33:47;101015.66;;;10.68;96.69
65758;BME280;52495;52.208;5.158;2023-03-19T03:36:14;101019.19;;;10.63;96.44
65758;BME280;52495;52.208;5.158;2023-03-19T03:38:42;101014.00;;;10.62;96.40
65758;BME280;52495;52.208;5.158;2023-03-19T03:41:09;101010.66;;;10.57;96.09
65758;BME280;52495;52.208;5.158;2023-03-19T03:43:36;101018.41;;;10.57;96.58
65758;BME280;52495;52.208;5.158;2023-03-19T03:46:04;101013.38;;;10.49;95.81
65758;BME280;52495;52.208;5.158;2023-03-19T03:48:32;101019.41;;;10.46;95.93
65758;BME280;52495;52.208;5.158;2023-03-19T03:51:00;101022.88;;;10.44;96.64
65758;BME280;52495;52.208;5.158;2023-03-19T03:53:27;101020.34;;;10.41;96.58
65758;BME280;52495;52.208;5.158;2023-03-19T03:55:54;101016.94;;;10.37;96.40
65758;BME280;52495;52.208;5.158;2023-03-19T03:58:23;101023.88;;;10.32;96.66
65758;BME280;52495;52.208;5.158;2023-03-19T04:00:50;101023.94;;;10.27;96.29
65758;BME280;52495;52.208;5.158;2023-03-19T04:03:19;101018.84;;;10.21;97.08
65758;BME280;52495;52.208;5.158;2023-03-19T04:05:46;101020.59;;;10.19;97.07
65758;BME280;52495;52.208;5.158;2023-03-19T04:08:17;101018.94;;;10.15;97.38
65758;BME280;52495;52.208;5.158;2023-03-19T04:10:44;101025.00;;;10.11;97.14
65758;BME280;52495;52.208;5.158;2023-03-19T04:13:11;101025.06;;;10.05;97.21
65758;BME280;52495;52.208;5.158;2023-03-19T04:15:41;101021.72;;;9.98;97.77
65758;BME280;52495;52.208;5.158;2023-03-19T04:18:09;101026.06;;;9.93;97.49
65758;BME280;52495;52.208;5.158;2023-03-19T04:20:35;101020.03;;;9.94;97.44
65758;BME280;52495;52.208;5.158;2023-03-19T04:23:02;101018.38;;;9.90;97.56
65758;BME280;52495;52.208;5.158;2023-03-19T04:25:30;101024.34;;;9.92;98.09
65758;BME280;52495;52.208;5.158;2023-03-19T04:27:57;101012.31;;;9.91;98.89
65758;BME280;52495;52.208;5.158;2023-03-19T04:30:26;101022.66;;;9.89;97.93
65758;BME280;52495;52.208;5.158;2023-03-19T04:32:55;101018.41;;;9.86;97.72
65758;BME280;52495;52.208;5.158;2023-03-19T04:35:22;101022.69;;;9.87;97.78
65758;BME280;52495;52.208;5.158;2023-03-19T04:37:48;101025.28;;;9.86;98.26
65758;BME280;52495;52.208;5.158;2023-03-19T04:40:18;101020.13;;;9.86;98.08
65758;BME280;52495;52.208;5.158;2023-03-19T04:42:47;101027.00;;;9.89;98.27
65758;BME280;52495;52.208;5.158;2023-03-19T04:45:34;101036.38;;;9.93;98.44
65758;BME280;52495;52.208;5.158;2023-03-19T04:48:01;101026.91;;;9.95;98.80
65758;BME280;52495;52.208;5.158;2023-03-19T04:50:29;101027.75;;;9.98;99.00
65758;BME280;52495;52.208;5.158;2023-03-19T04:52:57;101035.44;;;10.00;98.97
65758;BME280;52495;52.208;5.158;2023-03-19T04:55:24;101027.75;;;9.98;98.47
65758;BME280;52495;52.208;5.158;2023-03-19T04:58:14;101032.06;;;9.95;98.36
65758;BME280;52495;52.208;5.158;2023-03-19T05:00:42;101039.88;;;9.89;97.42
65758;BME280;52495;52.208;5.158;2023-03-19T05:03:14;101053.66;;;9.87;97.40
65758;BME280;52495;52.208;5.158;2023-03-19T05:05:42;101052.00;;;9.80;97.53
65758;BME280;52495;52.208;5.158;2023-03-19T05:08:10;101052.88;;;9.78;97.51
65758;BME280;52495;52.208;5.158;2023-03-19T05:10:38;101057.19;;;9.74;97.29
65758;BME280;52495;52.208;5.158;2023-03-19T05:13:05;101063.25;;;9.73;97.86
65758;BME280;52495;52.208;5.158;2023-03-19T05:15:40;101064.97;;;9.72;98.28
65758;BME280;52495;52.208;5.158;2023-03-19T05:18:08;101075.25;;;9.74;98.11
65758;BME280;52495;52.208;5.158;2023-03-19T05:20:41;101068.34;;;9.76;98.87
65758;BME280;52495;52.208;5.158;2023-03-19T05:23:16;101082.97;;;9.79;99.25
65758;BME280;52495;52.208;5.158;2023-03-19T05:25:52;101086.41;;;9.76;98.88
65758;BME280;52495;52.208;5.158;2023-03-19T05:28:30;101085.53;;;9.77;99.21
65758;BME280;52495;52.208;5.158;2023-03-19T05:30:59;101078.75;;;9.70;99.17
65758;BME280;52495;52.208;5.158;2023-03-19T05:33:34;101085.63;;;9.71;99.97
65758;BME280;52495;52.208;5.158;2023-03-19T05:36:02;101086.47;;;9.68;99.76
65758;BME280;52495;52.208;5.158;2023-03-19T05:38:41;101090.81;;;9.68;100.00
65758;BME280;52495;52.208;5.158;2023-03-19T05:41:13;101085.63;;;9.66;100.00
65758;BME280;52495;52.208;5.158;2023-03-19T05:43:53;101100.34;;;9.56;100.00
65758;BME280;52495;52.208;5.158;2023-03-19T05:46:39;101102.00;;;9.64;100.00
65758;BME280;52495;52.208;5.158;2023-03-19T05:49:06;101101.16;;;9.62;100.00
65758;BME280;52495;52.208;5.158;2023-03-19T05:51:34;101102.03;;;9.62;100.00
65758;BME280;52495;52.208;5.158;2023-03-19T05:54:01;101106.28;;;9.68;100.00
65758;BME280;52495;52.208;5.158;2023-03-19T05:56:57;101112.25;;;9.71;100.00
65758;BME280;52495;52.208;5.158;2023-03-19T05:59:33;101108.00;;;9.66;100.00
65758;BME280;52495;52.208;5.158;2023-03-19T06:02:24;101102.06;;;9.59;100.00
65758;BME280;52495;52.208;5.158;2023-03-19T06:05:01;101101.28;;;9.49;100.00
65758;BME280;52495;52.208;5.158;2023-03-19T06:07:29;101104.69;;;9.51;100.00
65758;BME280;52495;52.208;5.158;2023-03-19T06:09:57;101102.97;;;9.52;100.00
65758;BME280;52495;52.208;5.158;2023-03-19T06:12:24;101106.44;;;9.49;100.00
65758;BME280;52495;52.208;5.158;2023-03-19T06:15:10;101116.75;;;9.46;100.00
65758;BME280;52495;52.208;5.158;2023-03-19T06:17:44;101116.78;;;9.43;100.00
65758;BME280;52495;52.208;5.158;2023-03-19T06:20:14;101121.09;;;9.41;100.00
65758;BME280;52495;52.208;5.158;2023-03-19T06:22:41;101120.25;;;9.40;100.00
65758;BME280;52495;52.208;5.158;2023-03-19T06:25:09;101128.00;;;9.34;100.00
65758;BME280;52495;52.208;5.158;2023-03-19T06:27:36;101127.16;;;9.34;100.00
65758;BME280;52495;52.208;5.158;2023-03-19T06:30:16;101125.47;;;9.33;100.00
65758;BME280;52495;52.208;5.158;2023-03-19T06:32:45;101135.75;;;9.33;100.00
65758;BME280;52495;52.208;5.158;2023-03-19T06:35:12;101142.69;;;9.26;100.00
65758;BME280;52495;52.208;5.158;2023-03-19T06:37:42;101146.13;;;9.25;100.00
65758;BME280;52495;52.208;5.158;2023-03-19T06:40:09;101143.56;;;9.22;100.00
65758;BME280;52495;52.208;5.158;2023-03-19T06:42:36;101156.44;;;9.22;100.00
65758;BME280;52495;52.208;5.158;2023-03-19T06:45:04;101156.44;;;9.23;100.00
65758;BME280;52495;52.208;5.158;2023-03-19T06:47:32;101162.50;;;9.19;100.00
65758;BME280;52495;52.208;5.158;2023-03-19T06:50:00;101165.91;;;9.17;100.00
65758;BME280;52495;52.208;5.158;2023-03-19T06:52:26;101177.09;;;9.17;100.00
65758;BME280;52495;52.208;5.158;2023-03-19T06:54:53;101166.78;;;9.20;100.00
65758;BME280;52495;52.208;5.158;2023-03-19T06:57:20;101173.66;;;9.18;100.00
65758;BME280;52495;52.208;5.158;2023-03-19T06:59:46;101183.94;;;9.17;100.00
65758;BME280;52495;52.208;5.158;2023-03-19T07:02:13;101181.41;;;9.09;100.00
65758;BME280;52495;52.208;5.158;2023-03-19T07:04:41;101185.69;;;9.16;100.00
65758;BME280;52495;52.208;5.158;2023-03-19T07:07:09;101179.66;;;9.16;100.00
65758;BME280;52495;52.208;5.158;2023-03-19T07:09:36;101190.88;;;9.11;100.00
65758;BME280;52495;52.208;5.158;2023-03-19T07:12:03;101198.59;;;9.10;100.00
65758;BME280;52495;52.208;5.158;2023-03-19T07:14:30;101197.78;;;8.97;100.00
65758;BME280;52495;52.208;5.158;2023-03-19T07:16:57;101200.41;;;8.94;100.00
65758;BME280;52495;52.208;5.158;2023-03-19T07:19:23;101209.81;;;8.98;100.00
65758;BME280;52495;52.208;5.158;2023-03-19T07:21:50;101218.38;;;8.97;100.00
65758;BME280;52495;52.208;5.158;2023-03-19T07:24:18;101220.13;;;8.96;100.00
65758;BME280;52495;52.208;5.158;2023-03-19T07:26:45;101220.97;;;8.97;100.00
65758;BME280;52495;52.208;5.158;2023-03-19T07:29:12;101220.97;;;8.99;100.00
65758;BME280;52495;52.208;5.158;2023-03-19T07:31:39;101224.34;;;9.07;100.00
65758;BME280;52495;52.208;5.158;2023-03-19T07:34:06;101223.50;;;9.08;100.00
65758;BME280;52495;52.208;5.158;2023-03-19T07:36:33;101225.19;;;9.12;100.00
65758;BME280;52495;52.208;5.158;2023-03-19T07:39:00;101228.63;;;9.14;100.00
65758;BME280;52495;52.208;5.158;2023-03-19T07:41:29;101226.03;;;9.19;100.00
65758;BME280;52495;52.208;5.158;2023-03-19T07:43:56;101229.47;;;9.19;100.00
65758;BME280;52495;52.208;5.158;2023-03-19T07:46:23;101235.47;;;9.18;100.00
65758;BME280;52495;52.208;5.158;2023-03-19T07:48:49;101226.00;;;9.22;100.00
65758;BME280;52495;52.208;5.158;2023-03-19T07:51:17;101230.28;;;9.26;100.00
65758;BME280;52495;52.208;5.158;2023-03-19T07:53:44;101225.94;;;9.33;100.00
65758;BME280;52495;52.208;5.158;2023-03-19T07:56:11;101231.97;;;9.35;100.00
65758;BME280;52495;52.208;5.158;2023-03-19T07:58:39;101238.84;;;9.33;100.00
65758;BME280;52495;52.208;5.158;2023-03-19T08:01:06;101243.13;;;9.37;100.00
65758;BME280;52495;52.208;5.158;2023-03-19T08:03:33;101246.59;;;9.28;100.00
65758;BME280;52495;52.208;5.158;2023-03-19T08:06:00;101249.13;;;9.31;100.00
65758;BME280;52495;52.208;5.158;2023-03-19T08:08:28;101253.47;;;9.24;100.00
65758;BME280;52495;52.208;5.158;2023-03-19T08:10:55;101249.16;;;9.26;100.00
65758;BME280;52495;52.208;5.158;2023-03-19T08:13:22;101249.22;;;9.20;100.00
65758;BME280;52495;52.208;5.158;2023-03-19T08:15:50;101243.19;;;9.20;100.00
65758;BME280;52495;52.208;5.158;2023-03-19T08:18:18;101250.94;;;9.18;100.00
65758;BME280;52495;52.208;5.158;2023-03-19T08:20:47;101262.06;;;9.25;100.00
65758;BME280;52495;52.208;5.158;2023-03-19T08:23:14;101261.16;;;9.34;100.00
65758;BME280;52495;52.208;5.158;2023-03-19T08:25:41;101258.56;;;9.38;100.00
65758;BME280;52495;52.208;5.158;2023-03-19T08:28:08;101262.91;;;9.25;100.00
65758;BME280;52495;52.208;5.158;2023-03-19T08:30:35;101265.50;;;9.27;100.00
65758;BME280;52495;52.208;5.158;2023-03-19T08:33:03;101268.03;;;9.32;100.00
65758;BME280;52495;52.208;5.158;2023-03-19T08:35:30;101264.59;;;9.39;100.00
65758;BME280;52495;52.208;5.158;2023-03-19T08:37:58;101261.09;;;9.46;100.00
65758;BME280;52495;52.208;5.158;2023-03-19T08:40:25;101272.25;;;9.51;100.00
65758;BME280;52495;52.208;5.158;2023-03-19T08:42:52;101271.38;;;9.55;100.00
65758;BME280;52495;52.208;5.158;2023-03-19T08:45:20;101280.78;;;9.58;100.00
65758;BME280;52495;52.208;5.158;2023-03-19T08:47:47;101291.06;;;9.60;100.00
65758;BME280;52495;52.208;5.158;2023-03-19T08:50:16;101296.22;;;9.60;100.00
65758;BME280;52495;52.208;5.158;2023-03-19T08:52:43;101297.06;;;9.65;100.00
65758;BME280;52495;52.208;5.158;2023-03-19T08:55:11;101301.34;;;9.67;100.00
65758;BME280;52495;52.208;5.158;2023-03-19T08:57:38;101295.28;;;9.75;100.00
65758;BME280;52495;52.208;5.158;2023-03-19T09:00:05;101307.31;;;9.77;100.00
65758;BME280;52495;52.208;5.158;2023-03-19T09:02:33;101298.78;;;9.69;100.00
65758;BME280;52495;52.208;5.158;2023-03-19T09:04:59;101309.88;;;9.79;100.00
65758;BME280;52495;52.208;5.158;2023-03-19T09:07:27;101309.84;;;9.85;100.00
65758;BME280;52495;52.208;5.158;2023-03-19T09:09:54;101308.97;;;9.87;100.00
65758;BME280;52495;52.208;5.158;2023-03-19T09:12:21;101303.75;;;9.98;100.00
65758;BME280;52495;52.208;5.158;2023-03-19T09:14:48;101297.66;;;10.02;100.00
65758;BME280;52495;52.208;5.158;2023-03-19T09:17:16;101301.91;;;10.08;100.00
65758;BME280;52495;52.208;5.158;2023-03-19T09:19:43;101305.34;;;10.10;100.00
65758;BME280;52495;52.208;5.158;2023-03-19T09:22:09;101312.22;;;10.13;100.00
65758;BME280;52495;52.208;5.158;2023-03-19T09:24:38;101312.22;;;10.11;100.00
65758;BME280;52495;52.208;5.158;2023-03-19T09:27:04;101311.31;;;10.17;100.00
65758;BME280;52495;52.208;5.158;2023-03-19T09:29:31;101320.81;;;10.15;99.82
65758;BME280;52495;52.208;5.158;2023-03-19T09:31:58;101320.78;;;10.16;100.00
65758;BME280;52495;52.208;5.158;2023-03-19T09:34:26;101326.78;;;10.22;100.00
65758;BME280;52495;52.208;5.158;2023-03-19T09:36:53;101331.94;;;10.22;99.78
65758;BME280;52495;52.208;5.158;2023-03-19T09:39:20;101332.81;;;10.19;99.35
65758;BME280;52495;52.208;5.158;2023-03-19T09:41:56;101342.31;;;10.12;98.64
65758;BME280;52495;52.208;5.158;2023-03-19T09:44:30;101339.75;;;10.14;98.75
65758;BME280;52495;52.208;5.158;2023-03-19T09:47:05;101345.75;;;10.11;98.67
65758;BME280;52495;52.208;5.158;2023-03-19T09:49:38;101354.41;;;10.09;98.90
65758;BME280;52495;52.208;5.158;2023-03-19T09:52:15;101357.81;;;10.11;99.37
65758;BME280;52495;52.208;5.158;2023-03-19T09:54:47;101357.78;;;10.15;99.16
65758;BME280;52495;52.208;5.158;2023-03-19T09:57:18;101356.91;;;10.18;100.00
65758;BME280;52495;52.208;5.158;2023-03-19T09:59:45;101364.63;;;10.18;99.42
65758;BME280;52495;52.208;5.158;2023-03-19T10:02:30;101356.03;;;10.21;99.06
65758;BME280;52495;52.208;5.158;2023-03-19T10:05:12;101362.88;;;10.26;99.67
65758;BME280;52495;52.208;5.158;2023-03-19T10:07:55;101368.84;;;10.33;99.31
65758;BME280;52495;52.208;5.158;2023-03-19T10:10:44;101375.69;;;10.37;99.98
65758;BME280;52495;52.208;5.158;2023-03-19T10:13:21;101366.22;;;10.44;99.86
65758;BME280;52495;52.208;5.158;2023-03-19T10:15:51;101370.47;;;10.50;99.83
65758;BME280;52495;52.208;5.158;2023-03-19T10:18:22;101366.97;;;10.55;99.41
65758;BME280;52495;52.208;5.158;2023-03-19T10:20:53;101367.84;;;10.54;98.28
65758;BME280;52495;52.208;5.158;2023-03-19T10:23:43;101372.13;;;10.57;97.86
65758;BME280;52495;52.208;5.158;2023-03-19T10:26:12;101377.25;;;10.60;98.28
65758;BME280;52495;52.208;5.158;2023-03-19T10:28:44;101375.53;;;10.63;97.97
65758;BME280;52495;52.208;5.158;2023-03-19T10:31:25;101374.59;;;10.69;98.67
65758;BME280;52495;52.208;5.158;2023-03-19T10:34:04;101376.25;;;10.75;98.05
65758;BME280;52495;52.208;5.158;2023-03-19T10:36:37;101371.97;;;10.74;97.95
65758;BME280;52495;52.208;5.158;2023-03-19T10:39:04;101383.97;;;10.80;97.94
65758;BME280;52495;52.208;5.158;2023-03-19T10:41:41;101383.09;;;10.81;97.90
65758;BME280;52495;52.208;5.158;2023-03-19T10:44:20;101385.66;;;10.84;97.53
65758;BME280;52495;52.208;5.158;2023-03-19T10:46:51;101391.69;;;10.84;97.33
65758;BME280;52495;52.208;5.158;2023-03-19T10:49:17;101388.22;;;10.85;97.26
65758;BME280;52495;52.208;5.158;2023-03-19T10:51:45;101392.50;;;10.91;97.52
65758;BME280;52495;52.208;5.158;2023-03-19T10:54:19;101392.47;;;10.89;96.83
65758;BME280;52495;52.208;5.158;2023-03-19T10:56:47;101397.69;;;10.86;95.94
65758;BME280;52495;52.208;5.158;2023-03-19T10:59:23;101402.91;;;10.83;96.73
65758;BME280;52495;52.208;5.158;2023-03-19T11:01:55;101406.31;;;10.84;96.88
65758;BME280;52495;52.208;5.158;2023-03-19T11:04:22;101404.59;;;10.86;97.61
65758;BME280;52495;52.208;5.158;2023-03-19T11:06:52;101400.25;;;10.91;97.33
65758;BME280;52495;52.208;5.158;2023-03-19T11:09:24;101403.66;;;10.93;96.83
65758;BME280;52495;52.208;5.158;2023-03-19T11:11:56;101402.69;;;11.03;96.79
65758;BME280;52495;52.208;5.158;2023-03-19T11:14:30;101399.25;;;11.03;96.20
65758;BME280;52495;52.208;5.158;2023-03-19T11:17:03;101400.97;;;11.02;95.85
65758;BME280;52495;52.208;5.158;2023-03-19T11:19:32;101394.91;;;11.05;95.89
65758;BME280;52495;52.208;5.158;2023-03-19T11:22:06;101402.63;;;11.08;95.47
65758;BME280;52495;52.208;5.158;2023-03-19T11:24:36;101405.16;;;11.14;95.31
65758;BME280;52495;52.208;5.158;2023-03-19T11:27:04;101397.38;;;11.19;95.37
65758;BME280;52495;52.208;5.158;2023-03-19T11:29:33;101411.13;;;11.21;94.27
65758;BME280;52495;52.208;5.158;2023-03-19T11:32:16;101402.50;;;11.22;94.59
65758;BME280;52495;52.208;5.158;2023-03-19T11:34:51;101398.16;;;11.27;94.46
65758;BME280;52495;52.208;5.158;2023-03-19T11:37:24;101400.63;;;11.36;93.74
65758;BME280;52495;52.208;5.158;2023-03-19T11:39:58;101399.78;;;11.34;93.74
65758;BME280;52495;52.208;5.158;2023-03-19T11:42:38;101401.50;;;11.35;93.36
65758;BME280;52495;52.208;5.158;2023-03-19T11:45:20;101402.34;;;11.36;92.98
65758;BME280;52495;52.208;5.158;2023-03-19T11:47:57;101405.75;;;11.38;92.81
65758;BME280;52495;52.208;5.158;2023-03-19T11:50:32;101406.59;;;11.40;92.78
65758;BME280;52495;52.208;5.158;2023-03-19T11:53:08;101411.78;;;11.40;92.73
65758;BME280;52495;52.208;5.158;2023-03-19T11:55:41;101407.50;;;11.37;92.09
65758;BME280;52495;52.208;5.158;2023-03-19T11:58:39;101406.63;;;11.38;92.22
65758;BME280;52495;52.208;5.158;2023-03-19T12:01:18;101414.28;;;11.46;92.93
65758;BME280;52495;52.208;5.158;2023-03-19T12:04:12;101415.09;;;11.51;92.71
65758;BME280;52495;52.208;5.158;2023-03-19T12:06:51;101414.19;;;11.54;91.79
65758;BME280;52495;52.208;5.158;2023-03-19T12:09:28;101421.94;;;11.57;91.61
65758;BME280;52495;52.208;5.158;2023-03-19T12:12:02;101416.75;;;11.57;91.37
65758;BME280;52495;52.208;5.158;2023-03-19T12:14:42;101416.88;;;11.46;90.16
65758;BME280;52495;52.208;5.158;2023-03-19T12:17:23;101409.97;;;11.48;91.31
65758;BME280;52495;52.208;5.158;2023-03-19T12:20:14;101416.84;;;11.48;90.58
65758;BME280;52495;52.208;5.158;2023-03-19T12:22:54;101427.22;;;11.46;89.90
65758;BME280;52495;52.208;5.158;2023-03-19T12:25:33;101433.31;;;11.41;89.83
65758;BME280;52495;52.208;5.158;2023-03-19T12:28:10;101438.56;;;11.34;90.26
65758;BME280;52495;52.208;5.158;2023-03-19T12:30:43;101436.81;;;11.36;90.21
65758;BME280;52495;52.208;5.158;2023-03-19T12:33:24;101434.25;;;11.33;90.51
65758;BME280;52495;52.208;5.158;2023-03-19T12:35:58;101440.25;;;11.38;90.85
65758;BME280;52495;52.208;5.158;2023-03-19T12:38:30;101444.56;;;11.36;90.20
65758;BME280;52495;52.208;5.158;2023-03-19T12:41:02;101446.28;;;11.37;89.80
65758;BME280;52495;52.208;5.158;2023-03-19T12:43:35;101454.91;;;11.36;89.44
65758;BME280;52495;52.208;5.158;2023-03-19T12:46:07;101444.69;;;11.26;89.70
65758;BME280;52495;52.208;5.158;2023-03-19T12:48:40;101449.91;;;11.21;89.95
65758;BME280;52495;52.208;5.158;2023-03-19T12:51:11;101448.25;;;11.15;90.12
65758;BME280;52495;52.208;5.158;2023-03-19T12:53:45;101453.44;;;11.11;90.47
65758;BME280;52495;52.208;5.158;2023-03-19T12:56:14;101455.19;;;11.07;91.82
65758;BME280;52495;52.208;5.158;2023-03-19T12:58:50;101454.31;;;11.11;91.49
65758;BME280;52495;52.208;5.158;2023-03-19T13:01:22;101464.59;;;11.13;91.92
65758;BME280;52495;52.208;5.158;2023-03-19T13:03:57;101450.81;;;11.15;91.46
65758;BME280;52495;52.208;5.158;2023-03-19T13:06:27;101456.84;;;11.16;91.59
65758;BME280;52495;52.208;5.158;2023-03-19T13:09:00;101462.78;;;11.26;92.13